Fruita, CO (81521)

11:39 AM MST on December 05, 2016 (GMT -0700)
Orchard Valley West | | Change Station

Elev 4511 ft 39.17 °N, 108.74 °W | Updated 25 seconds ago

Clear
Clear
44.1 °F
Feels Like 44 °F
N
2.0
Wind Variable Wind from WSW
Gusts 4.0 mph

Today
High -- | Low -- °F
--% Chance of Precip.
Yesterday
High -- | Low -- °F
Precip. -- in
Pressure 29.90 in
Visibility 10.0 miles
Clouds Clear
Windchill 44 °F
Dew Point 23 °F
Humidity 43%
Rainfall 0.00 in
Snow Depth Not available.
7:19 AM 4:51 PM
Waxing Crescent, 33% visible
METAR KGJT 051753Z 00000KT 10SM CLR 02/M05 A2987 RMK AO2 SLP123 T00221050 10028 21061 51008
Pressure 29.90 in
Visibility 10.0 miles
Clouds Clear
Windchill 44 °F
Dew Point 23 °F
Humidity 43%
Rainfall 0.00 in
Snow Depth Not available.
7:19 AM 4:51 PM
Waxing Crescent, 33% visible
METAR KGJT 051753Z 00000KT 10SM CLR 02/M05 A2987 RMK AO2 SLP123 T00221050 10028 21061 51008

10-Day Weather Forecast

Almanac

Astronomy

Dec. 05, 2016 Rise Set
Actual Time
Civil Twilight
Nautical Twilight
Astronomical Twilight
Moon
Length of Visible Light
Length of Day
Tomorrow will be .
, % of the Moon is Illuminated

Today's Extremes

State Highs State Lows

Community

WunderPhotos

Upload Photos

1,955,849 photos uploaded!

WunderBlog® & News

Nearby

Air Quality

  Air Quality AQ Index Pollutant
Not available.

Snow Depth

Station Depth Elevation

Earthquake Activity

City Distance Mag. Time & Date
Minimum magnitude displayed is 2.5.

Coastal Water Temperatures

Place Temperature

Stations

Nearby Weather Stations

Station Location Temp. Windchill Dew Point Humidity Wind Precip. Elev Updated Type
                   

Watches & Warnings

There are currently no watches in effect.